Time;durP1;ratioP1;P1;durP2;ratioP2;P2;SDS_P1;SDS_P2;PMS_P1;PMS_P2;Temp;Humidity;BMP_temperature;BMP_pressure;BME280_temperature;BME280_humidity;BME280_pressure;Samples;Min_cycle;Max_cycle;Signal;HPM_P1;HPM_P2
2023/07/24 00:01:20;;;;;;;847.67;792.97;;;17.10;99.90;;;;;;5015293;28;20477;-67
2023/07/24 00:03:47;;;;;;;857.03;799.93;;;17.00;99.90;;;;;;5014857;28;20460;-67
2023/07/24 00:06:14;;;;;;;853.83;796.13;;;17.00;99.90;;;;;;5014859;28;20456;-67
2023/07/24 00:08:42;;;;;;;862.60;804.53;;;16.90;99.90;;;;;;5014617;28;20459;-66
2023/07/24 00:11:09;;;;;;;865.70;806.60;;;16.90;99.90;;;;;;5014143;28;20449;-66
2023/07/24 00:13:36;;;;;;;865.60;805.10;;;16.80;99.90;;;;;;5014837;28;20453;-67
2023/07/24 00:16:07;;;;;;;869.07;805.00;;;16.80;99.90;;;;;;5014811;28;20827;-67
2023/07/24 00:18:34;;;;;;;866.20;801.87;;;16.80;99.90;;;;;;5014648;28;20458;-67
2023/07/24 00:21:01;;;;;;;853.30;790.30;;;16.80;99.90;;;;;;5014174;28;20460;-67
2023/07/24 00:23:28;;;;;;;860.80;799.33;;;16.80;99.90;;;;;;5014548;28;20453;-66
2023/07/24 00:25:56;;;;;;;858.10;797.40;;;16.70;99.90;;;;;;5014763;28;20481;-67
2023/07/24 00:28:23;;;;;;;864.47;804.07;;;16.70;99.90;;;;;;5014211;28;20469;-67
2023/07/24 00:30:50;;;;;;;873.33;810.00;;;16.60;99.90;;;;;;5013860;28;20527;-64
2023/07/24 00:33:17;;;;;;;868.67;805.47;;;16.50;99.90;;;;;;5014375;28;20449;-67
2023/07/24 00:35:43;;;;;;;878.87;813.97;;;16.40;99.90;;;;;;5014175;28;20661;-67
2023/07/24 00:38:10;;;;;;;886.30;818.30;;;16.40;99.90;;;;;;5014164;28;20460;-67
2023/07/24 00:40:37;;;;;;;891.00;821.60;;;16.40;99.90;;;;;;5014132;28;20472;-67
2023/07/24 00:43:05;;;;;;;887.10;817.20;;;16.40;99.90;;;;;;5013950;28;21009;-67
2023/07/24 00:45:32;;;;;;;887.27;816.77;;;16.40;99.90;;;;;;5014595;28;20460;-67
2023/07/24 00:48:00;;;;;;;890.43;818.63;;;16.30;99.90;;;;;;5014347;28;20544;-67
2023/07/24 00:50:28;;;;;;;889.63;818.50;;;16.40;99.90;;;;;;5014119;28;20449;-67
2023/07/24 00:52:55;;;;;;;892.10;820.60;;;16.50;99.90;;;;;;5014147;28;20450;-67
2023/07/24 00:55:22;;;;;;;882.47;810.83;;;16.50;99.90;;;;;;5014330;28;20453;-67
2023/07/24 00:57:50;;;;;;;887.70;814.20;;;16.50;99.90;;;;;;5013528;28;20957;-67
2023/07/24 01:00:18;;;;;;;888.00;815.77;;;16.60;99.90;;;;;;5013542;28;20552;-67
2023/07/24 01:02:45;;;;;;;886.67;816.37;;;16.60;99.90;;;;;;5013710;28;20499;-67
2023/07/24 01:05:14;;;;;;;879.70;810.90;;;16.70;99.90;;;;;;5013983;28;20469;-65
2023/07/24 01:07:41;;;;;;;879.23;812.37;;;16.70;99.90;;;;;;5013865;28;20528;-65
2023/07/24 01:10:09;;;;;;;882.93;817.50;;;16.60;99.90;;;;;;5013559;28;20456;-65
2023/07/24 01:12:38;;;;;;;895.17;829.37;;;16.60;99.90;;;;;;5013602;28;20455;-65
2023/07/24 01:15:14;;;;;;;892.20;826.23;;;16.50;99.90;;;;;;5013489;28;20453;-65
2023/07/24 01:17:46;;;;;;;899.50;833.20;;;16.50;99.90;;;;;;5013858;28;20457;-65
2023/07/24 01:20:16;;;;;;;900.67;833.77;;;16.40;99.90;;;;;;5013503;28;20475;-67
2023/07/24 01:22:58;;;;;;;910.17;841.53;;;16.30;99.90;;;;;;5013336;28;21003;-68
2023/07/24 01:25:35;;;;;;;910.83;841.90;;;16.30;99.90;;;;;;5013615;28;20457;-67
2023/07/24 01:28:08;;;;;;;907.93;839.77;;;16.20;99.90;;;;;;5013836;28;20456;-67
2023/07/24 01:30:34;;;;;;;907.20;837.10;;;16.10;99.90;;;;;;5013283;28;20457;-67
2023/07/24 01:33:01;;;;;;;918.80;847.13;;;16.10;99.90;;;;;;5013700;28;20808;-67
2023/07/24 01:35:30;;;;;;;912.90;841.80;;;16.00;99.90;;;;;;5013543;28;20453;-68
2023/07/24 01:37:57;;;;;;;927.90;855.30;;;16.00;99.90;;;;;;5013215;28;20816;-68
2023/07/24 01:40:24;;;;;;;915.47;845.90;;;15.90;99.90;;;;;;5013093;28;20472;-68
2023/07/24 01:42:51;;;;;;;913.10;847.37;;;15.90;99.90;;;;;;5012921;28;20481;-68
2023/07/24 01:45:20;;;;;;;917.93;848.23;;;15.70;99.90;;;;;;5013037;28;20552;-68
2023/07/24 01:47:46;;;;;;;919.00;848.90;;;15.70;99.90;;;;;;5013247;28;20465;-68
2023/07/24 01:50:13;;;;;;;930.47;856.27;;;15.60;99.90;;;;;;5012875;28;20793;-68
2023/07/24 01:52:40;;;;;;;931.90;854.70;;;15.60;99.90;;;;;;5012948;28;20449;-68
2023/07/24 01:55:09;;;;;;;928.83;851.07;;;15.70;99.90;;;;;;5012916;28;20458;-68
2023/07/24 01:57:35;;;;;;;921.70;843.03;;;15.70;99.90;;;;;;5013231;28;20453;-68
2023/07/24 02:00:02;;;;;;;923.70;845.63;;;15.90;99.90;;;;;;5012822;28;20827;-68
2023/07/24 02:02:30;;;;;;;921.03;840.70;;;15.90;99.90;;;;;;5012965;28;20477;-68
2023/07/24 02:04:57;;;;;;;913.20;833.93;;;16.00;99.90;;;;;;5013048;28;20825;-68
2023/07/24 02:07:24;;;;;;;904.87;827.37;;;16.10;99.90;;;;;;5012770;28;20446;-68
2023/07/24 02:09:51;;;;;;;912.03;835.20;;;16.20;99.90;;;;;;5012760;28;20480;-68
2023/07/24 02:12:17;;;;;;;917.47;841.20;;;16.30;99.90;;;;;;5013057;28;20453;-68
2023/07/24 02:14:44;;;;;;;910.97;836.27;;;16.30;99.90;;;;;;5013094;28;20464;-68
2023/07/24 02:17:11;;;;;;;906.17;832.90;;;16.40;99.90;;;;;;5012848;28;20458;-68
2023/07/24 02:19:39;;;;;;;895.77;823.67;;;16.50;99.90;;;;;;5012570;28;20449;-68
2023/07/24 02:22:06;;;;;;;891.40;822.60;;;16.50;99.90;;;;;;5012516;28;20474;-68
2023/07/24 02:24:33;;;;;;;892.77;823.43;;;16.50;99.90;;;;;;5012848;28;20468;-68
2023/07/24 02:27:00;;;;;;;889.03;819.63;;;16.50;99.90;;;;;;5012613;28;20465;-67
2023/07/24 02:29:25;;;;;;;892.03;821.67;;;16.50;99.90;;;;;;5012582;28;20457;-67
2023/07/24 02:31:53;;;;;;;908.73;835.60;;;16.60;99.90;;;;;;5012702;28;20854;-67
2023/07/24 02:34:24;;;;;;;903.20;827.50;;;16.60;99.90;;;;;;5013797;28;20205;-67
2023/07/24 02:36:52;;;;;;;900.60;821.23;;;16.70;99.90;;;;;;5016781;28;20464;-66
2023/07/24 02:39:19;;;;;;;938.93;856.53;;;16.70;99.90;;;;;;5016275;28;20828;-67
2023/07/24 02:41:47;;;;;;;1036.27;952.67;;;16.80;99.90;;;;;;5016130;28;20832;-66
2023/07/24 02:44:13;;;;;;;1055.47;971.30;;;16.80;99.90;;;;;;5015992;28;20453;-67
2023/07/24 02:46:40;;;;;;;1106.47;999.90;;;16.80;99.90;;;;;;5015952;28;20459;-67
2023/07/24 02:49:08;;;;;;;1107.30;999.90;;;16.90;99.90;;;;;;5015449;28;20458;-64
2023/07/24 02:51:34;;;;;;;1100.87;999.90;;;16.90;99.90;;;;;;5016303;28;20453;-64
2023/07/24 02:54:02;;;;;;;1128.50;999.90;;;17.00;99.90;;;;;;5016326;28;20449;-65
2023/07/24 02:56:29;;;;;;;1128.67;999.90;;;17.00;99.90;;;;;;5016176;28;20453;-64
2023/07/24 02:58:56;;;;;;;1110.23;999.90;;;17.00;99.90;;;;;;5015810;28;20449;-64
2023/07/24 03:01:23;;;;;;;1096.77;999.90;;;17.00;99.90;;;;;;5016282;28;20460;-64
2023/07/24 03:03:50;;;;;;;1077.60;994.97;;;17.10;99.90;;;;;;5015715;28;20481;-64
2023/07/24 03:06:17;;;;;;;1064.47;983.27;;;17.10;99.90;;;;;;5015960;28;20453;-65
2023/07/24 03:08:43;;;;;;;1027.90;950.37;;;17.10;99.90;;;;;;5015793;28;20823;-65
2023/07/24 03:11:11;;;;;;;1036.73;959.07;;;17.10;99.90;;;;;;5015697;28;20453;-65
2023/07/24 03:13:40;;;;;;;1046.67;968.57;;;17.20;99.90;;;;;;5016027;28;20449;-64
2023/07/24 03:16:07;;;;;;;1043.17;966.30;;;17.10;99.90;;;;;;5016075;28;20770;-65
2023/07/24 03:18:34;;;;;;;1034.80;957.20;;;17.10;99.90;;;;;;5015869;28;20453;-65
2023/07/24 03:21:01;;;;;;;1030.67;953.90;;;17.10;99.90;;;;;;5015343;28;20465;-64
2023/07/24 03:23:28;;;;;;;1037.57;959.63;;;17.00;99.90;;;;;;5015545;28;20477;-65
2023/07/24 03:25:54;;;;;;;1044.23;965.80;;;17.00;99.90;;;;;;5015560;28;20461;-65
2023/07/24 03:28:22;;;;;;;1047.50;968.83;;;16.90;99.90;;;;;;5015481;28;20453;-65
2023/07/24 03:30:49;;;;;;;1034.37;955.90;;;16.90;99.90;;;;;;5015147;28;20458;-65
2023/07/24 03:33:17;;;;;;;1043.00;964.00;;;16.80;99.90;;;;;;5015453;28;20457;-64
2023/07/24 03:35:44;;;;;;;1041.23;961.93;;;16.80;99.90;;;;;;5015269;28;20548;-65
2023/07/24 03:38:11;;;;;;;1023.80;945.40;;;16.80;99.90;;;;;;5015224;28;20797;-65
2023/07/24 03:40:38;;;;;;;1028.67;950.37;;;16.80;99.90;;;;;;5015102;28;20468;-64
2023/07/24 03:43:05;;;;;;;1001.37;924.60;;;16.80;99.90;;;;;;5015064;28;20489;-64
2023/07/24 03:45:33;;;;;;;994.43;918.50;;;16.80;99.90;;;;;;5014066;28;20461;-65
2023/07/24 03:48:00;;;;;;;987.20;911.10;;;16.80;99.90;;;;;;5015078;28;20462;-65
2023/07/24 03:50:27;;;;;;;980.53;904.67;;;16.80;99.90;;;;;;5014839;28;20972;-65
2023/07/24 03:52:53;;;;;;;959.67;883.83;;;16.80;99.90;;;;;;5015243;28;20449;-65
2023/07/24 03:55:20;;;;;;;960.00;884.13;;;16.90;99.90;;;;;;5015008;28;20464;-64
2023/07/24 03:57:47;;;;;;;936.10;862.00;;;16.90;99.90;;;;;;5014786;28;20977;-64
2023/07/24 04:00:15;;;;;;;917.17;844.07;;;17.00;99.90;;;;;;5014877;28;20460;-65
2023/07/24 04:02:43;;;;;;;911.47;838.93;;;17.00;99.90;;;;;;5015084;28;20477;-65
2023/07/24 04:05:10;;;;;;;908.10;836.10;;;17.00;99.90;;;;;;5014814;28;20454;-65
2023/07/24 04:07:37;;;;;;;895.03;822.37;;;17.10;99.90;;;;;;5014988;28;20453;-64
2023/07/24 04:10:04;;;;;;;880.20;808.50;;;17.10;99.90;;;;;;5014402;28;20544;-64
2023/07/24 04:12:31;;;;;;;881.60;809.40;;;17.20;99.90;;;;;;5014593;28;20450;-64
2023/07/24 04:14:58;;;;;;;878.10;806.30;;;17.10;99.90;;;;;;5014632;28;20458;-65
2023/07/24 04:17:24;;;;;;;876.67;805.47;;;17.20;99.90;;;;;;5014824;28;20483;-64
2023/07/24 04:19:53;;;;;;;880.97;809.17;;;17.20;99.90;;;;;;5014096;28;20460;-65
2023/07/24 04:22:19;;;;;;;879.00;807.70;;;17.20;99.90;;;;;;5014439;28;20461;-64
2023/07/24 04:24:46;;;;;;;882.90;812.10;;;17.20;99.90;;;;;;5014437;28;20453;-65
2023/07/24 04:27:13;;;;;;;876.47;807.23;;;17.20;99.90;;;;;;5014522;28;20461;-64
2023/07/24 04:29:40;;;;;;;874.63;805.80;;;17.30;99.90;;;;;;5014231;28;20458;-64
2023/07/24 04:32:07;;;;;;;870.17;800.70;;;17.30;99.90;;;;;;5014466;28;20453;-64
2023/07/24 04:34:34;;;;;;;873.20;804.20;;;17.30;99.90;;;;;;5014474;28;20450;-64
2023/07/24 04:37:02;;;;;;;852.83;784.43;;;17.30;99.90;;;;;;5014440;28;20480;-67
2023/07/24 04:39:29;;;;;;;865.53;796.17;;;17.30;99.90;;;;;;5013841;28;20508;-67
2023/07/24 04:41:56;;;;;;;866.80;797.60;;;17.30;99.90;;;;;;5014295;28;20483;-67
2023/07/24 04:44:23;;;;;;;865.40;798.40;;;17.40;99.90;;;;;;5014338;28;20488;-67
2023/07/24 04:46:50;;;;;;;867.40;800.67;;;17.40;99.90;;;;;;5014203;28;20453;-68
2023/07/24 04:49:17;;;;;;;865.97;800.03;;;17.50;99.90;;;;;;5013869;28;20493;-67
2023/07/24 04:51:43;;;;;;;866.33;800.10;;;17.50;99.90;;;;;;5013708;28;20449;-68
2023/07/24 04:54:12;;;;;;;873.07;807.47;;;17.50;99.90;;;;;;5013362;28;20960;-68
2023/07/24 04:56:38;;;;;;;873.33;807.43;;;17.60;99.90;;;;;;5013674;28;20840;-68
2023/07/24 04:59:05;;;;;;;874.17;808.27;;;17.60;99.90;;;;;;5013397;28;20454;-68
2023/07/24 05:01:32;;;;;;;860.43;799.07;;;17.60;99.90;;;;;;5013562;28;20461;-68
2023/07/24 05:03:59;;;;;;;860.60;801.10;;;17.70;99.90;;;;;;5013418;28;20480;-69
2023/07/24 05:06:26;;;;;;;854.30;797.10;;;17.80;99.90;;;;;;5013518;28;20461;-68
2023/07/24 05:08:53;;;;;;;832.80;779.50;;;17.90;99.90;;;;;;5013226;28;20462;-69
2023/07/24 05:11:22;;;;;;;819.93;770.10;;;18.00;99.90;;;;;;5013360;28;20805;-66
2023/07/24 05:13:48;;;;;;;783.90;738.40;;;18.10;99.90;;;;;;5013909;28;20462;-67
2023/07/24 05:16:15;;;;;;;780.57;735.30;;;18.10;99.90;;;;;;5013741;28;20461;-67
2023/07/24 05:18:42;;;;;;;746.03;705.00;;;18.20;99.90;;;;;;5013215;28;20942;-70
2023/07/24 05:21:09;;;;;;;781.37;736.17;;;18.30;99.90;;;;;;5012797;28;20457;-69
2023/07/24 05:23:36;;;;;;;750.43;709.23;;;18.40;99.90;;;;;;5013583;28;20482;-67
2023/07/24 05:26:04;;;;;;;672.30;637.97;;;18.60;99.90;;;;;;5013611;28;20551;-67
2023/07/24 05:28:33;;;;;;;636.27;605.57;;;18.70;99.90;;;;;;5013228;28;20461;-67
2023/07/24 05:31:02;;;;;;;600.97;573.07;;;18.80;99.90;;;;;;5013389;28;20461;-67
2023/07/24 05:33:29;;;;;;;595.37;569.23;;;18.80;99.90;;;;;;5013305;28;20453;-68
2023/07/24 05:35:59;;;;;;;580.17;554.93;;;18.80;99.90;;;;;;5013143;28;21196;-67
2023/07/24 05:38:26;;;;;;;576.73;551.77;;;18.80;99.90;;;;;;5013412;28;20457;-68
2023/07/24 05:40:55;;;;;;;554.13;530.23;;;18.90;99.90;;;;;;5013145;28;20468;-68
2023/07/24 05:43:22;;;;;;;257.43;247.93;;;19.20;99.90;;;;;;5013137;28;20484;-67
2023/07/24 05:45:51;;;;;;;315.33;304.17;;;19.40;99.90;;;;;;5013089;28;20462;-68
2023/07/24 05:48:17;;;;;;;170.13;164.30;;;19.50;99.90;;;;;;5012921;28;20458;-68
2023/07/24 05:50:44;;;;;;;96.30;92.53;;;19.60;99.90;;;;;;5012949;28;20541;-68
2023/07/24 05:53:11;;;;;;;75.73;72.70;;;19.60;99.90;;;;;;5012983;28;20453;-68
2023/07/24 05:55:38;;;;;;;80.73;77.47;;;19.60;99.90;;;;;;5013186;28;20824;-67
2023/07/24 05:58:05;;;;;;;60.47;57.87;;;19.50;99.90;;;;;;5013026;28;20454;-68
2023/07/24 06:00:32;;;;;;;51.40;48.73;;;19.50;99.90;;;;;;5012637;28;20468;-68
2023/07/24 06:03:00;;;;;;;32.93;31.23;;;19.60;99.90;;;;;;5012820;28;20456;-67
2023/07/24 06:05:27;;;;;;;16.37;14.73;;;19.70;99.90;;;;;;5012832;28;20453;-68
2023/07/24 06:07:53;;;;;;;9.27;8.20;;;20.00;99.90;;;;;;5013218;28;20457;-68
2023/07/24 06:10:20;;;;;;;8.47;7.37;;;20.10;99.90;;;;;;5012141;28;20461;-68
2023/07/24 06:12:47;;;;;;;8.90;7.17;;;20.20;99.50;;;;;;5012860;28;20469;-67
2023/07/24 06:15:14;;;;;;;7.87;4.60;;;20.60;98.70;;;;;;5012724;28;20457;-68
2023/07/24 06:17:41;;;;;;;8.27;4.90;;;20.90;95.50;;;;;;5013011;28;20462;-68
2023/07/24 06:20:10;;;;;;;9.70;5.43;;;21.10;95.60;;;;;;5012503;28;21183;-67
2023/07/24 06:22:36;;;;;;;8.37;4.73;;;21.10;95.60;;;;;;5012991;28;20469;-67
2023/07/24 06:25:04;;;;;;;12.43;4.50;;;21.00;95.90;;;;;;5012988;28;20976;-67
2023/07/24 06:27:30;;;;;;;7.33;4.03;;;21.00;95.40;;;;;;5012970;28;20458;-67
2023/07/24 06:29:57;;;;;;;7.80;4.00;;;20.90;95.10;;;;;;5012260;28;20840;-68
2023/07/24 06:32:24;;;;;;;10.23;5.03;;;20.90;92.90;;;;;;5012881;28;20453;-68
2023/07/24 06:34:51;;;;;;;10.03;4.40;;;21.00;92.90;;;;;;5012805;28;20456;-68
2023/07/24 06:37:19;;;;;;;7.30;3.27;;;21.00;92.10;;;;;;5012715;28;20460;-68
2023/07/24 06:39:46;;;;;;;13.20;4.10;;;21.00;92.50;;;;;;5010436;28;20830;-68
2023/07/24 06:42:12;;;;;;;7.50;3.77;;;21.10;92.10;;;;;;5012296;28;20454;-68
2023/07/24 06:44:39;;;;;;;6.90;3.87;;;21.20;91.90;;;;;;5011978;28;20481;-70
2023/07/24 06:47:06;;;;;;;7.27;3.97;;;21.30;90.60;;;;;;5012305;28;20464;-68
2023/07/24 06:49:33;;;;;;;5.77;3.20;;;21.20;87.20;;;;;;5011912;28;20457;-68
2023/07/24 06:52:00;;;;;;;8.50;3.30;;;21.20;87.20;;;;;;5012178;28;20830;-67
2023/07/24 06:54:28;;;;;;;6.80;3.70;;;21.20;87.20;;;;;;5012264;28;20449;-68
2023/07/24 06:56:54;;;;;;;5.80;2.80;;;21.20;87.20;;;;;;5011975;28;20468;-67
2023/07/24 06:59:21;;;;;;;7.60;3.57;;;21.30;87.30;;;;;;5011619;28;20453;-68
2023/07/24 07:01:48;;;;;;;7.30;3.80;;;21.20;87.20;;;;;;5011934;28;20457;-68
2023/07/24 07:04:15;;;;;;;6.27;3.17;;;21.40;87.40;;;;;;5011450;28;20477;-68
2023/07/24 07:06:42;;;;;;;7.63;3.33;;;21.50;87.40;;;;;;5011447;28;20484;-67
2023/07/24 07:09:08;;;;;;;7.30;3.93;;;21.50;82.40;;;;;;5011316;28;20453;-68
2023/07/24 07:11:36;;;;;;;6.63;3.80;;;21.60;85.80;;;;;;5011765;28;20449;-68
2023/07/24 07:14:03;;;;;;;7.10;3.93;;;21.60;82.20;;;;;;5011757;28;20449;-67
2023/07/24 07:16:30;;;;;;;9.00;5.40;;;21.60;79.90;;;;;;5011976;28;20453;-68
2023/07/24 07:18:57;;;;;;;6.93;3.67;;;21.60;79.70;;;;;;5011694;28;20825;-67
2023/07/24 07:21:24;;;;;;;7.10;3.60;;;21.40;79.40;;;;;;5014666;28;20453;-68
2023/07/24 07:23:51;;;;;;;6.67;3.77;;;21.50;79.60;;;;;;5015246;28;20484;-68
2023/07/24 07:26:17;;;;;;;8.03;3.53;;;21.50;79.50;;;;;;5015111;28;20464;-68
2023/07/24 07:28:46;;;;;;;8.10;3.20;;;21.60;78.70;;;;;;5015100;28;20453;-67
2023/07/24 07:31:12;;;;;;;7.87;3.50;;;21.70;76.40;;;;;;5014937;28;20824;-67
2023/07/24 07:33:39;;;;;;;7.40;3.20;;;21.80;74.00;;;;;;5015193;28;20480;-68
2023/07/24 07:36:06;;;;;;;6.77;3.33;;;21.80;71.70;;;;;;5015206;28;20485;-68
2023/07/24 07:38:33;;;;;;;9.30;3.97;;;22.10;72.00;;;;;;5014925;28;20879;-68
2023/07/24 07:41:04;;;;;;;7.10;3.47;;;22.20;72.10;;;;;;5015299;28;20544;-68
2023/07/24 07:43:31;;;;;;;7.03;3.20;;;22.40;72.30;;;;;;5014707;28;20457;-67
2023/07/24 07:45:59;;;;;;;6.13;2.90;;;22.50;72.30;;;;;;5014557;28;20464;-67
2023/07/24 07:48:26;;;;;;;5.63;3.10;;;22.60;73.30;;;;;;5014887;28;20476;-68
2023/07/24 07:50:53;;;;;;;6.60;3.47;;;22.40;71.40;;;;;;5014267;28;20457;-66
2023/07/24 07:53:20;;;;;;;6.30;2.80;;;22.50;70.20;;;;;;5014232;28;20472;-68
2023/07/24 07:55:47;;;;;;;7.50;3.40;;;22.50;69.00;;;;;;5014356;28;20453;-67
2023/07/24 07:58:13;;;;;;;7.63;3.90;;;22.70;71.80;;;;;;5014395;28;20476;-68
2023/07/24 08:00:40;;;;;;;7.10;3.57;;;22.60;67.90;;;;;;5014213;28;20460;-68
2023/07/24 08:03:09;;;;;;;9.53;3.53;;;22.90;64.50;;;;;;5014087;28;20493;-67
2023/07/24 08:05:35;;;;;;;8.30;3.80;;;23.40;65.00;;;;;;5014239;28;20500;-67
2023/07/24 08:08:02;;;;;;;7.20;3.33;;;23.60;65.00;;;;;;5014590;28;20453;-67
2023/07/24 08:10:29;;;;;;;6.67;3.10;;;23.50;59.60;;;;;;5014183;28;20465;-67
2023/07/24 08:12:56;;;;;;;6.53;3.20;;;23.30;57.60;;;;;;5015125;28;20804;-67
2023/07/24 08:15:22;;;;;;;7.57;3.33;;;23.30;60.70;;;;;;5014073;28;20461;-67
2023/07/24 08:17:49;;;;;;;7.53;3.67;;;23.10;64.60;;;;;;5014426;28;20457;-68
2023/07/24 08:20:18;;;;;;;9.40;4.00;;;23.00;64.00;;;;;;5014325;28;20814;-68
2023/07/24 08:22:45;;;;;;;7.17;3.97;;;22.90;64.30;;;;;;5014206;28;20964;-67
2023/07/24 08:25:11;;;;;;;7.50;4.07;;;23.30;64.90;;;;;;5014218;28;20832;-66
2023/07/24 08:27:38;;;;;;;6.63;2.93;;;23.00;56.10;;;;;;5014663;28;20926;-67
2023/07/24 08:30:06;;;;;;;6.00;2.87;;;23.20;58.20;;;;;;5013876;28;20461;-67
2023/07/24 08:32:36;;;;;;;7.83;2.97;;;23.10;63.40;;;;;;5013255;28;20453;-68
2023/07/24 08:35:03;;;;;;;6.87;3.50;;;23.00;58.70;;;;;;5014065;28;20793;-67
2023/07/24 08:37:31;;;;;;;7.00;3.53;;;22.90;61.20;;;;;;5014178;28;20457;-68
2023/07/24 08:39:57;;;;;;;7.20;3.43;;;22.70;60.40;;;;;;5013574;28;20454;-67
2023/07/24 08:42:25;;;;;;;8.73;3.47;;;22.70;62.60;;;;;;5013922;28;20467;-67
2023/07/24 08:44:53;;;;;;;7.60;3.60;;;22.80;64.40;;;;;;5013787;28;20480;-68
2023/07/24 08:47:20;;;;;;;8.30;4.00;;;22.80;59.80;;;;;;5014000;28;20460;-67
2023/07/24 08:49:48;;;;;;;6.70;3.20;;;22.60;57.60;;;;;;5013650;28;20454;-67
2023/07/24 08:52:15;;;;;;;6.80;3.60;;;22.60;59.40;;;;;;5013981;28;20454;-68
2023/07/24 08:54:44;;;;;;;7.67;3.43;;;22.40;61.10;;;;;;5013681;28;20824;-67
2023/07/24 08:57:12;;;;;;;6.83;3.13;;;22.30;63.90;;;;;;5013586;28;20480;-68
2023/07/24 08:59:39;;;;;;;6.63;3.37;;;22.00;63.70;;;;;;5013537;28;20462;-67
2023/07/24 09:02:06;;;;;;;8.93;3.63;;;22.00;63.70;;;;;;5013245;28;20464;-66
2023/07/24 09:04:33;;;;;;;6.90;3.60;;;21.90;63.60;;;;;;5012802;28;20481;-67
2023/07/24 09:07:00;;;;;;;7.87;3.30;;;22.10;63.80;;;;;;5013064;28;20552;-67
2023/07/24 09:09:31;;;;;;;10.63;3.50;;;22.10;63.80;;;;;;5012834;28;20469;-67
2023/07/24 09:12:01;;;;;;;6.60;2.80;;;21.90;63.60;;;;;;5013648;28;20453;-67
2023/07/24 09:14:30;;;;;;;6.30;2.73;;;22.00;63.70;;;;;;5013414;28;20524;-67
2023/07/24 09:17:04;;;;;;;6.80;3.30;;;21.90;63.60;;;;;;5013347;28;20890;-67
2023/07/24 09:19:31;;;;;;;7.70;3.60;;;22.00;63.70;;;;;;5013175;28;20968;-67
2023/07/24 09:22:12;;;;;;;8.67;3.67;;;22.30;63.90;;;;;;5012954;28;20464;-67
2023/07/24 09:24:39;;;;;;;8.67;4.10;;;22.70;62.60;;;;;;5013074;28;20489;-66
2023/07/24 09:27:09;;;;;;;7.27;2.93;;;22.90;61.00;;;;;;5013301;28;20457;-67
2023/07/24 09:29:36;;;;;;;9.73;2.93;;;23.30;59.40;;;;;;5012772;28;20458;-67
2023/07/24 09:32:04;;;;;;;6.93;2.90;;;23.70;56.70;;;;;;5012519;28;20461;-66
2023/07/24 09:34:32;;;;;;;12.00;4.27;;;23.90;56.90;;;;;;5012899;28;20850;-68
2023/07/24 09:36:59;;;;;;;6.50;2.70;;;24.00;56.90;;;;;;5012803;28;20458;-67
2023/07/24 09:39:26;;;;;;;13.17;2.80;;;24.20;52.80;;;;;;5012548;28;20458;-68
2023/07/24 09:41:54;;;;;;;7.30;3.10;;;24.20;52.60;;;;;;5012955;28;20461;-67
2023/07/24 09:44:27;;;;;;;10.27;3.50;;;24.60;52.10;;;;;;5012006;28;20512;-67
2023/07/24 09:46:54;;;;;;;10.13;3.50;;;24.80;48.90;;;;;;5012562;28;20552;-67
2023/07/24 09:49:21;;;;;;;7.93;3.10;;;24.70;48.80;;;;;;5012808;28;20450;-68
2023/07/24 09:51:54;;;;;;;6.17;2.97;;;24.80;48.90;;;;;;5012885;28;20458;-67
2023/07/24 09:54:26;;;;;;;6.87;3.67;;;24.70;48.80;;;;;;5012609;28;20450;-67
2023/07/24 09:56:55;;;;;;;6.77;2.97;;;24.50;48.60;;;;;;5012808;28;20531;-66
2023/07/24 09:59:29;;;;;;;7.20;3.03;;;24.30;48.40;;;;;;5012492;28;20803;-67
2023/07/24 10:01:57;;;;;;;6.50;2.60;;;24.30;48.40;;;;;;5012922;28;20460;-68
2023/07/24 10:04:24;;;;;;;6.73;3.03;;;24.50;48.60;;;;;;5012062;28;20918;-68
2023/07/24 10:06:52;;;;;;;6.50;3.20;;;24.70;48.80;;;;;;5012388;28;20701;-67
2023/07/24 10:09:22;;;;;;;5.97;2.50;;;24.70;48.80;;;;;;5012195;28;20565;-67
2023/07/24 10:11:49;;;;;;;7.03;2.80;;;24.60;45.10;;;;;;5012426;28;20519;-67
2023/07/24 10:14:16;;;;;;;10.03;2.67;;;24.90;44.60;;;;;;5012413;28;20456;-67
2023/07/24 10:16:46;;;;;;;5.83;2.47;;;24.50;42.30;;;;;;5012559;28;20460;-67
2023/07/24 10:19:16;;;;;;;8.23;2.90;;;24.30;46.00;;;;;;5012269;28;20453;-67
2023/07/24 10:21:49;;;;;;;6.00;2.33;;;24.30;48.30;;;;;;5012176;28;20453;-68
2023/07/24 10:24:16;;;;;;;5.63;2.47;;;24.30;45.40;;;;;;5012253;28;20453;-67
2023/07/24 10:26:43;;;;;;;6.37;3.00;;;24.50;48.60;;;;;;5012635;28;20531;-67
2023/07/24 10:29:10;;;;;;;5.23;2.13;;;24.50;48.60;;;;;;5012302;28;20453;-67
2023/07/24 10:31:37;;;;;;;7.50;3.10;;;24.30;48.40;;;;;;5012264;28;20460;-67
2023/07/24 10:34:09;;;;;;;6.97;2.20;;;24.40;48.50;;;;;;5012439;28;20460;-67
2023/07/24 10:36:38;;;;;;;6.65;2.63;;;24.60;48.60;;;;;;5012063;28;20815;-66
2023/07/24 10:39:15;;;;;;;21.00;7.00;;;24.90;39.90;;;;;;5011496;28;20253;-67
2023/07/24 10:41:43;;;;;;;11.03;3.87;;;24.90;39.90;;;;;;5012124;28;20460;-67
2023/07/24 10:44:09;;;;;;;15.23;7.37;;;25.30;40.20;;;;;;5012281;28;20488;-67
2023/07/24 10:46:41;;;;;;;7.70;3.17;;;26.30;40.80;;;;;;5012232;28;20442;-66
2023/07/24 10:49:10;;;;;;;5.97;2.60;;;27.00;32.10;;;;;;5011921;28;20536;-67
2023/07/24 10:51:38;;;;;;;6.30;2.97;;;26.80;32.00;;;;;;5012287;28;20454;-67
2023/07/24 10:54:05;;;;;;;5.53;2.07;;;26.70;29.50;;;;;;5012146;28;20457;-66
2023/07/24 10:56:32;;;;;;;6.37;2.40;;;26.20;29.60;;;;;;5015476;28;20456;-67
2023/07/24 10:59:04;;;;;;;8.43;2.50;;;25.60;31.10;;;;;;5015204;28;20449;-66
2023/07/24 11:01:32;;;;;;;6.40;2.17;;;25.30;36.30;;;;;;5015820;28;20453;-66
2023/07/24 11:03:59;;;;;;;6.40;2.37;;;24.30;40.70;;;;;;5014856;28;20459;-66
2023/07/24 11:06:28;;;;;;;5.90;2.47;;;23.60;47.80;;;;;;5014796;28;21096;-66
2023/07/24 11:08:57;;;;;;;10.33;3.10;;;22.80;47.00;;;;;;5014926;28;20453;-67
2023/07/24 11:11:28;;;;;;;11.30;3.50;;;22.30;55.40;;;;;;5015429;28;20464;-66
2023/07/24 11:13:55;;;;;;;6.53;2.50;;;21.90;55.00;;;;;;5015135;28;20453;-67
2023/07/24 11:16:22;;;;;;;7.33;3.20;;;21.30;63.10;;;;;;5015624;28;20800;-66
2023/07/24 11:18:52;;;;;;;10.80;3.00;;;20.70;70.80;;;;;;5015716;28;20462;-64
2023/07/24 11:21:19;;;;;;;8.00;4.33;;;20.20;78.80;;;;;;5012461;28;20496;-63
2023/07/24 11:23:49;;;;;;;10.63;6.83;;;19.80;90.30;;;;;;4995417;28;20469;-62
2023/07/24 11:26:16;;;;;;;46.57;44.23;;;19.50;94.90;;;;;;4995241;28;20485;-62
2023/07/24 11:28:45;;;;;;;424.73;411.63;;;19.20;99.90;;;;;;4995101;28;20458;-62
2023/07/24 11:31:12;;;;;;;529.37;512.77;;;18.90;99.90;;;;;;4994940;28;20461;-66
2023/07/24 11:33:40;;;;;;;671.03;645.17;;;18.70;99.90;;;;;;4995532;28;20461;-65
2023/07/24 11:36:07;;;;;;;833.53;790.67;;;18.60;99.90;;;;;;4995321;28;20462;-65
2023/07/24 11:38:34;;;;;;;836.33;792.43;;;18.60;99.90;;;;;;4995492;28;20966;-65
2023/07/24 11:41:02;;;;;;;926.00;869.87;;;18.50;99.90;;;;;;4995174;28;21095;-65
2023/07/24 11:43:29;;;;;;;945.80;885.33;;;18.50;99.90;;;;;;4995226;28;20840;-65
2023/07/24 11:45:56;;;;;;;798.73;759.17;;;18.60;99.90;;;;;;4995362;28;20477;-65
2023/07/24 11:48:24;;;;;;;63.27;60.90;;;18.10;99.90;;;;;;4995405;28;20461;-64
2023/07/24 11:50:52;;;;;;;246.60;239.10;;;17.20;99.90;;;;;;4995040;28;20454;-64
2023/07/24 11:53:27;;;;;;;6.73;6.23;;;16.30;99.90;;;;;;4995156;28;20973;-63
2023/07/24 11:55:55;;;;;;;6.00;5.50;;;15.80;99.90;;;;;;4995301;28;20449;-63
2023/07/24 11:58:28;;;;;;;5.90;5.40;;;16.80;99.90;;;;;;4994894;28;20462;-65
2023/07/24 12:00:55;;;;;;;6.83;6.33;;;16.30;99.90;;;;;;4995283;28;20466;-65
2023/07/24 12:03:23;;;;;;;8.27;7.77;;;16.30;99.90;;;;;;4994947;28;20968;-65
2023/07/24 12:05:50;;;;;;;11.80;11.17;;;16.80;99.90;;;;;;4994414;28;20846;-65
2023/07/24 12:08:19;;;;;;;14.90;14.20;;;18.40;99.90;;;;;;4993843;28;20486;-65
2023/07/24 12:10:46;;;;;;;16.60;15.80;;;18.60;99.90;;;;;;4994566;28;20470;-65
2023/07/24 12:13:13;;;;;;;18.70;17.80;;;18.00;99.90;;;;;;4995074;28;20480;-65
2023/07/24 12:15:41;;;;;;;23.60;22.60;;;18.10;99.90;;;;;;4994613;28;20448;-65
2023/07/24 12:18:08;;;;;;;26.70;25.60;;;19.70;99.90;;;;;;4994745;28;20206;-66
2023/07/24 12:20:35;;;;;;;25.27;24.17;;;19.50;99.90;;;;;;4994885;28;20461;-66
2023/07/24 12:23:02;;;;;;;19.00;18.10;;;20.80;99.90;;;;;;4994677;28;20554;-66
2023/07/24 12:25:32;;;;;;;12.17;11.50;;;20.60;99.90;;;;;;4994393;28;20486;-64
2023/07/24 12:27:59;;;;;;;16.37;15.57;;;20.20;99.90;;;;;;4994452;28;20461;-68